Time;durP1;ratioP1;P1;durP2;ratioP2;P2;SDS_P1;SDS_P2;PMS_P1;PMS_P2;Temp;Humidity;BMP_temperature;BMP_pressure;BME280_temperature;BME280_humidity;BME280_pressure;Samples;Min_cycle;Max_cycle;Signal;HPM_P1;HPM_P2
2024/01/16 00:00:53;;;;;;;7.17;6.33;;;0.30;99.90;;;;;;4979234;28;20559;-77
2024/01/16 00:03:37;;;;;;;7.70;6.60;;;0.00;99.90;;;;;;4979171;28;20571;-79
2024/01/16 00:06:32;;;;;;;8.47;6.20;;;0.30;99.90;;;;;;4979237;28;20456;-79
2024/01/16 00:12:08;;;;;;;6.93;6.20;;;0.30;99.90;;;;;;4967941;28;20874;-79
2024/01/16 00:14:44;;;;;;;6.80;6.07;;;0.30;99.90;;;;;;4978172;28;20913;-77
2024/01/16 00:17:27;;;;;;;7.57;6.60;;;0.00;99.90;;;;;;4982366;28;20503;-76
2024/01/16 00:20:08;;;;;;;6.30;5.67;;;0.00;99.90;;;;;;4986278;28;20836;-77
2024/01/16 00:22:49;;;;;;;19.27;6.50;;;0.30;99.90;;;;;;4979423;28;20485;-76
2024/01/16 00:25:41;;;;;;;8.10;6.37;;;0.20;99.90;;;;;;4979104;28;20432;-78
2024/01/16 00:28:26;;;;;;;8.80;6.80;;;0.30;99.90;;;;;;4980301;28;20809;-78
2024/01/16 00:31:02;;;;;;;6.27;5.67;;;0.50;99.90;;;;;;4980825;28;20975;-78
2024/01/16 00:33:50;;;;;;;6.60;5.80;;;-0.10;99.90;;;;;;4980528;28;20469;-78
2024/01/16 00:36:35;;;;;;;9.63;6.17;;;0.20;99.90;;;;;;4981425;28;20564;-77
2024/01/16 00:39:11;;;;;;;6.30;5.80;;;0.20;99.90;;;;;;4983156;28;20461;-78
2024/01/16 00:41:47;;;;;;;7.20;6.50;;;0.20;99.90;;;;;;4982739;28;20892;-77
2024/01/16 00:44:31;;;;;;;6.40;5.77;;;0.20;99.90;;;;;;4982469;28;20458;-79
2024/01/16 00:47:03;;;;;;;5.63;5.13;;;0.20;99.90;;;;;;4981226;28;20959;-77
2024/01/16 00:49:58;;;;;;;5.77;5.27;;;-0.10;99.90;;;;;;4978049;28;20466;-79
2024/01/16 00:52:36;;;;;;;6.30;5.70;;;0.20;99.90;;;;;;4981286;28;20469;-76
2024/01/16 00:55:35;;;;;;;6.43;5.83;;;0.40;99.90;;;;;;4982763;28;20536;-80
2024/01/16 00:58:06;;;;;;;5.70;5.20;;;0.30;99.90;;;;;;4984654;28;20527;-76
2024/01/16 01:00:37;;;;;;;7.80;5.90;;;0.20;99.90;;;;;;4984551;28;20449;-78
2024/01/16 01:03:07;;;;;;;6.53;6.03;;;0.20;99.90;;;;;;4984758;28;20544;-77
2024/01/16 01:05:40;;;;;;;5.93;5.43;;;0.20;99.90;;;;;;4984884;28;20454;-78
2024/01/16 01:08:22;;;;;;;6.33;5.43;;;0.20;99.90;;;;;;4985273;28;20472;-80
2024/01/16 01:10:57;;;;;;;6.57;5.43;;;0.20;99.90;;;;;;4982698;28;20457;-78
2024/01/16 01:13:32;;;;;;;5.73;5.20;;;0.20;99.90;;;;;;4983491;28;20543;-77
2024/01/16 01:16:31;;;;;;;7.50;5.50;;;0.30;99.90;;;;;;4983654;28;20512;-78
2024/01/16 01:19:07;;;;;;;7.37;6.20;;;0.20;99.90;;;;;;4984506;28;20874;-78
2024/01/16 01:21:44;;;;;;;6.93;6.23;;;0.00;99.90;;;;;;4984943;28;20461;-77
2024/01/16 01:27:11;;;;;;;5.43;4.90;;;0.30;99.90;;;;;;4981989;28;20452;-79
2024/01/16 01:29:50;;;;;;;7.17;5.57;;;0.30;99.90;;;;;;4985959;28;20540;-77
2024/01/16 01:32:47;;;;;;;6.80;5.73;;;0.30;99.90;;;;;;4985659;28;20473;-80
2024/01/16 01:35:37;;;;;;;7.93;5.60;;;0.30;99.90;;;;;;4984110;28;20533;-77
2024/01/16 01:38:12;;;;;;;5.70;5.20;;;0.30;99.90;;;;;;4984823;28;20464;-78
2024/01/16 01:40:57;;;;;;;6.20;5.27;;;0.30;99.90;;;;;;4984982;28;20467;-79
2024/01/16 01:43:45;;;;;;;6.03;5.53;;;0.30;99.90;;;;;;4985210;28;20485;-77
2024/01/16 01:46:23;;;;;;;5.60;5.10;;;0.20;99.90;;;;;;4985674;28;20441;-77
2024/01/16 01:49:04;;;;;;;8.73;5.50;;;0.30;99.90;;;;;;4985663;28;20453;-77
2024/01/16 01:51:37;;;;;;;6.90;5.83;;;0.30;99.90;;;;;;4985937;28;20467;-77
2024/01/16 01:54:10;;;;;;;5.80;5.40;;;0.30;99.90;;;;;;4985038;28;20461;-77
2024/01/16 01:57:14;;;;;;;6.00;5.40;;;0.30;99.90;;;;;;4985359;28;20479;-75
2024/01/16 01:59:46;;;;;;;8.47;5.93;;;0.30;99.90;;;;;;4985531;28;20463;-76
2024/01/16 02:02:23;;;;;;;6.87;5.63;;;0.30;99.90;;;;;;4985926;28;20642;-76
2024/01/16 02:05:13;;;;;;;7.17;5.50;;;0.30;99.90;;;;;;4985955;28;20521;-76
2024/01/16 02:08:12;;;;;;;10.50;6.87;;;0.30;99.90;;;;;;4987091;28;20544;-78
2024/01/16 02:10:52;;;;;;;6.50;5.43;;;0.20;99.90;;;;;;4986030;28;20446;-77
2024/01/16 02:13:48;;;;;;;9.93;5.33;;;0.20;99.90;;;;;;4986496;28;20469;-76
2024/01/16 02:16:31;;;;;;;12.93;6.27;;;0.20;99.90;;;;;;4982979;28;20457;-78
2024/01/16 02:19:07;;;;;;;5.77;4.97;;;0.20;99.90;;;;;;4988010;28;20448;-76
2024/01/16 02:27:35;;;;;;;6.40;5.80;;;0.10;99.90;;;;;;4982457;28;20536;-77
2024/01/16 02:30:08;;;;;;;6.70;6.03;;;0.10;99.90;;;;;;4983888;28;20952;-76
2024/01/16 02:32:41;;;;;;;9.03;5.33;;;-0.20;99.90;;;;;;4983237;28;20496;-79
2024/01/16 02:35:17;;;;;;;6.90;6.20;;;0.00;99.90;;;;;;4982984;28;20488;-77
2024/01/16 02:37:53;;;;;;;6.93;6.27;;;0.10;99.90;;;;;;4981983;28;20460;-78
2024/01/16 02:40:38;;;;;;;8.20;5.10;;;0.10;99.90;;;;;;4982901;28;20441;-77
2024/01/16 02:43:15;;;;;;;6.00;5.40;;;-0.30;99.90;;;;;;4965764;28;20503;-79
2024/01/16 02:45:57;;;;;;;6.07;5.57;;;0.00;99.90;;;;;;4983418;28;20441;-78
2024/01/16 02:48:37;;;;;;;7.57;6.17;;;-0.10;99.90;;;;;;4983102;28;20520;-78
2024/01/16 02:51:25;;;;;;;8.00;5.10;;;-0.10;99.90;;;;;;4982791;28;20974;-76
2024/01/16 02:54:12;;;;;;;8.90;5.70;;;-0.10;99.90;;;;;;4981243;28;20480;-77
2024/01/16 02:57:05;;;;;;;7.33;5.83;;;-0.40;99.90;;;;;;4979432;28;20460;-79
2024/01/16 02:59:36;;;;;;;6.67;6.00;;;-0.20;99.90;;;;;;4980022;28;20529;-77
2024/01/16 03:02:13;;;;;;;6.43;5.83;;;-0.20;99.90;;;;;;4979486;28;20504;-76
2024/01/16 03:04:57;;;;;;;6.90;6.13;;;-0.20;99.90;;;;;;4980298;28;20445;-78
2024/01/16 03:07:38;;;;;;;8.77;5.60;;;-0.20;99.90;;;;;;4979796;28;20488;-77
2024/01/16 03:10:15;;;;;;;6.80;6.20;;;-0.20;99.90;;;;;;4983141;28;20475;-77
2024/01/16 03:13:02;;;;;;;10.90;5.70;;;-0.30;99.90;;;;;;4983532;28;20446;-76
2024/01/16 03:15:40;;;;;;;8.10;5.93;;;-0.20;99.90;;;;;;4983614;28;20477;-77
2024/01/16 03:18:21;;;;;;;8.87;6.47;;;-0.30;99.90;;;;;;4983423;28;20473;-78
2024/01/16 03:21:04;;;;;;;5.93;5.43;;;-0.30;99.90;;;;;;4962367;29;20438;-78
2024/01/16 03:23:51;;;;;;;8.40;6.30;;;-0.30;99.90;;;;;;4963585;28;20578;-76
2024/01/16 03:26:27;;;;;;;6.53;5.90;;;-0.40;99.90;;;;;;4962515;29;20510;-77
2024/01/16 03:29:20;;;;;;;6.23;5.30;;;-0.20;99.90;;;;;;4961290;29;20811;-77
2024/01/16 03:32:09;;;;;;;6.17;5.63;;;-0.30;99.90;;;;;;4960463;28;20470;-77
2024/01/16 03:34:49;;;;;;;6.50;5.90;;;-0.30;99.90;;;;;;4961778;29;20445;-77
2024/01/16 03:37:21;;;;;;;9.53;5.90;;;-0.10;99.90;;;;;;4962056;29;20458;-77
2024/01/16 03:40:03;;;;;;;6.43;5.83;;;-0.40;99.90;;;;;;4963633;29;20457;-76
2024/01/16 03:42:38;;;;;;;6.57;5.33;;;-0.40;99.90;;;;;;4963256;28;20524;-77
2024/01/16 03:49:18;;;;;;;8.20;6.00;;;-0.50;99.90;;;;;;4955989;29;20438;-77
2024/01/16 03:52:24;;;;;;;8.50;5.60;;;-0.50;99.90;;;;;;4959419;28;20478;-79
2024/01/16 03:55:07;;;;;;;6.70;5.97;;;-0.60;99.90;;;;;;4958467;29;20794;-79
2024/01/16 03:57:43;;;;;;;5.90;5.40;;;-0.90;99.90;;;;;;4958850;29;20553;-78
2024/01/16 04:00:21;;;;;;;5.90;5.30;;;-0.60;99.90;;;;;;4962906;29;20891;-78
2024/01/16 04:03:16;;;;;;;8.43;7.27;;;-0.60;99.90;;;;;;4966116;28;20551;-78
2024/01/16 04:05:54;;;;;;;6.73;6.10;;;-0.60;99.90;;;;;;4976298;28;20475;-77
2024/01/16 04:08:39;;;;;;;6.73;6.03;;;-0.70;99.90;;;;;;4988396;28;20460;-76
2024/01/16 04:11:25;;;;;;;6.03;5.27;;;-0.50;99.90;;;;;;4988249;28;20472;-77
2024/01/16 04:14:02;;;;;;;8.00;6.10;;;-0.60;99.90;;;;;;4986323;28;20449;-78
2024/01/16 04:16:47;;;;;;;6.37;5.37;;;-0.70;99.90;;;;;;4984933;28;20453;-78
2024/01/16 04:19:33;;;;;;;5.77;5.00;;;-0.70;99.90;;;;;;4983637;28;20449;-76
2024/01/16 04:22:14;;;;;;;8.63;5.77;;;-0.80;99.90;;;;;;4984547;28;20543;-78
2024/01/16 04:24:48;;;;;;;5.77;5.27;;;-0.80;99.90;;;;;;4982997;28;20485;-78
2024/01/16 04:27:39;;;;;;;6.50;5.20;;;-1.00;99.90;;;;;;4982458;28;20445;-78
2024/01/16 04:30:22;;;;;;;6.27;5.30;;;-0.80;99.90;;;;;;4982925;28;20457;-76
2024/01/16 04:35:55;;;;;;;5.90;5.40;;;-0.80;99.90;;;;;;4981446;28;20489;-77
2024/01/16 04:38:48;;;;;;;9.43;6.37;;;-0.90;99.90;;;;;;4981447;28;20545;-77
2024/01/16 04:41:47;;;;;;;11.23;6.10;;;-0.90;99.90;;;;;;4981351;28;20453;-79
2024/01/16 04:47:26;;;;;;;7.23;5.67;;;-0.90;99.90;;;;;;4978287;28;20501;-78
2024/01/16 04:50:10;;;;;;;7.50;5.60;;;-0.70;99.90;;;;;;4982630;28;20445;-77
2024/01/16 04:52:55;;;;;;;5.60;4.93;;;-0.90;99.90;;;;;;4983027;28;20477;-77
2024/01/16 04:55:33;;;;;;;5.97;5.27;;;-1.20;99.90;;;;;;4983023;28;20573;-79
2024/01/16 05:01:10;;;;;;;5.20;4.70;;;-1.00;99.90;;;;;;4976375;28;20525;-78
2024/01/16 05:07:01;;;;;;;6.33;5.03;;;-1.00;99.90;;;;;;4981977;28;20449;-78
2024/01/16 05:09:36;;;;;;;5.37;4.93;;;-1.00;99.90;;;;;;4984334;28;20500;-78
2024/01/16 05:12:16;;;;;;;5.63;5.10;;;-0.80;99.90;;;;;;4985044;28;20544;-78
2024/01/16 05:14:55;;;;;;;6.03;5.00;;;-1.00;99.90;;;;;;4984496;28;20472;-78
2024/01/16 05:17:28;;;;;;;6.53;5.00;;;-1.00;99.90;;;;;;4982600;28;20449;-78
2024/01/16 05:20:01;;;;;;;6.43;5.50;;;-0.90;99.90;;;;;;4981577;28;20499;-76
2024/01/16 05:22:32;;;;;;;5.83;5.27;;;-0.90;99.90;;;;;;4981150;28;20469;-79
2024/01/16 05:25:08;;;;;;;6.70;5.90;;;-1.00;99.90;;;;;;4981511;28;20481;-79
2024/01/16 05:27:51;;;;;;;7.60;5.10;;;-1.00;99.90;;;;;;4981225;28;20508;-77
2024/01/16 05:30:28;;;;;;;6.50;5.13;;;-1.00;99.90;;;;;;4981579;28;20465;-79
2024/01/16 05:33:03;;;;;;;6.23;5.63;;;-1.00;99.90;;;;;;4982457;28;20501;-81
2024/01/16 05:35:42;;;;;;;8.53;5.87;;;-0.90;99.90;;;;;;4983445;28;20520;-80
2024/01/16 05:38:39;;;;;;;5.90;5.40;;;-0.90;99.90;;;;;;4981645;28;20524;-78
2024/01/16 05:41:34;;;;;;;;;;;;;;;;;;;;;
2024/01/16 05:44:23;;;;;;;5.47;5.07;;;-1.30;99.90;;;;;;4980685;28;20473;-78
2024/01/16 05:47:07;;;;;;;9.50;5.70;;;-1.00;99.90;;;;;;4979026;28;20464;-78
2024/01/16 05:49:56;;;;;;;6.47;5.77;;;-1.00;99.90;;;;;;4978766;28;20456;-79
2024/01/16 05:52:40;;;;;;;5.70;5.20;;;-1.30;99.90;;;;;;4984836;28;20473;-79
2024/01/16 05:55:14;;;;;;;6.27;5.67;;;-1.40;99.90;;;;;;4981802;28;20456;-78
2024/01/16 05:57:58;;;;;;;5.67;4.70;;;-1.00;99.90;;;;;;4983883;28;20460;-78
2024/01/16 06:00:39;;;;;;;6.40;5.80;;;-1.10;99.90;;;;;;4983419;28;20488;-78
2024/01/16 06:03:20;;;;;;;9.07;5.40;;;-1.10;99.90;;;;;;4983495;28;20496;-77
2024/01/16 06:05:57;;;;;;;7.27;6.37;;;-1.10;99.90;;;;;;4988074;28;20473;-77
2024/01/16 06:08:26;;;;;;;8.60;5.27;;;-1.10;99.90;;;;;;4988418;28;20461;-78
2024/01/16 06:11:28;;;;;;;;;;;;;;;;;;;;;
2024/01/16 06:14:12;;;;;;;5.83;5.37;;;-1.10;99.90;;;;;;4987378;28;20441;-78
2024/01/16 06:16:41;;;;;;;8.77;5.70;;;-1.10;99.90;;;;;;4991656;28;20479;-80
2024/01/16 06:19:23;;;;;;;;;;;;;;;;;;;;;
2024/01/16 06:22:20;;;;;;;6.60;5.03;;;-1.10;99.90;;;;;;4976501;28;20468;-78
2024/01/16 06:25:08;;;;;;;9.80;5.73;;;-1.10;99.90;;;;;;4975253;28;20491;-77
2024/01/16 06:27:42;;;;;;;6.87;5.00;;;-1.10;99.90;;;;;;4976402;28;20460;-79
2024/01/16 06:30:20;;;;;;;7.43;5.70;;;-1.10;99.90;;;;;;4975704;28;20564;-79
2024/01/16 06:33:00;;;;;;;5.57;5.07;;;-1.10;99.90;;;;;;4975567;28;20500;-79
2024/01/16 06:35:37;;;;;;;6.63;6.03;;;-0.90;99.90;;;;;;4974737;28;20911;-79
2024/01/16 06:41:12;;;;;;;6.63;5.57;;;-1.20;99.90;;;;;;4962866;28;20453;-78
2024/01/16 06:43:52;;;;;;;7.73;5.73;;;-1.20;99.90;;;;;;4977021;28;20535;-77
2024/01/16 06:46:31;;;;;;;7.30;6.60;;;-1.20;99.90;;;;;;4979540;28;20457;-78
2024/01/16 06:49:08;;;;;;;6.47;5.73;;;-1.20;99.90;;;;;;4979529;28;20463;-77
2024/01/16 06:51:40;;;;;;;6.37;5.40;;;-1.20;99.90;;;;;;4978554;28;20532;-78
2024/01/16 06:54:15;;;;;;;5.27;4.87;;;-1.20;99.90;;;;;;4978408;28;20496;-80
2024/01/16 06:57:03;;;;;;;6.00;5.40;;;-0.90;99.90;;;;;;4979784;28;20449;-79
2024/01/16 06:59:33;;;;;;;5.30;4.90;;;-1.00;99.90;;;;;;4979131;28;20485;-76
2024/01/16 07:05:30;;;;;;;5.70;5.20;;;-1.00;99.90;;;;;;4978338;28;21159;-79
2024/01/16 07:08:22;;;;;;;5.93;5.30;;;-1.00;99.90;;;;;;4978586;28;20464;-80
2024/01/16 07:11:07;;;;;;;6.03;5.20;;;-1.00;99.90;;;;;;4981372;28;20456;-78
2024/01/16 07:13:40;;;;;;;5.27;4.77;;;-1.10;99.90;;;;;;4981461;28;20475;-78
2024/01/16 07:19:20;;;;;;;5.07;4.57;;;-1.10;99.90;;;;;;4976064;28;20524;-80
2024/01/16 07:22:18;;;;;;;5.83;4.80;;;-1.10;99.90;;;;;;4978301;28;20816;-77
2024/01/16 07:24:48;;;;;;;5.30;4.80;;;-0.90;99.90;;;;;;4978382;28;20480;-79
2024/01/16 07:27:30;;;;;;;5.17;4.70;;;-1.10;99.90;;;;;;4978502;28;20548;-80
2024/01/16 07:30:08;;;;;;;6.37;5.37;;;-1.10;99.90;;;;;;4977583;28;20484;-81
2024/01/16 07:32:46;;;;;;;4.97;4.47;;;-1.10;99.90;;;;;;4978807;28;20847;-77
2024/01/16 07:35:22;;;;;;;6.77;5.50;;;-1.20;99.90;;;;;;4977715;28;20471;-78
2024/01/16 07:38:08;;;;;;;6.40;5.07;;;-1.20;99.90;;;;;;4978972;28;20537;-79
2024/01/16 07:43:42;;;;;;;6.03;4.23;;;-1.20;99.90;;;;;;4977923;28;20475;-78
2024/01/16 07:46:21;;;;;;;7.67;5.60;;;-1.20;99.90;;;;;;4960175;28;20908;-77
2024/01/16 07:48:57;;;;;;;5.53;5.03;;;-1.10;99.90;;;;;;4977231;28;20465;-78
2024/01/16 07:51:27;;;;;;;7.37;5.50;;;-1.10;99.90;;;;;;4981375;28;20529;-80
2024/01/16 07:54:13;;;;;;;5.17;4.70;;;-1.10;99.90;;;;;;4980343;28;20441;-79
2024/01/16 07:56:59;;;;;;;8.20;5.37;;;-1.40;99.90;;;;;;4995005;28;20445;-77
2024/01/16 07:59:48;;;;;;;4.67;4.27;;;-1.20;99.90;;;;;;4991848;28;20449;-77
2024/01/16 08:02:18;;;;;;;6.30;4.90;;;-1.20;99.90;;;;;;4979380;28;20623;-78
2024/01/16 08:04:55;;;;;;;6.70;5.33;;;-1.10;99.90;;;;;;4978979;28;20508;-80
2024/01/16 08:07:35;;;;;;;14.83;10.13;;;-1.10;99.90;;;;;;4979129;28;20468;-78
2024/01/16 08:10:15;;;;;;;9.63;7.23;;;-1.00;99.90;;;;;;4977384;28;20460;-79
2024/01/16 08:12:46;;;;;;;7.07;5.10;;;-1.00;99.90;;;;;;4979957;28;20523;-81
2024/01/16 08:15:25;;;;;;;5.27;4.73;;;-1.00;99.90;;;;;;4980429;28;20449;-78
2024/01/16 08:18:02;;;;;;;5.10;4.60;;;-1.20;99.90;;;;;;4980971;28;20496;-79
2024/01/16 08:20:47;;;;;;;5.23;4.73;;;-0.90;99.90;;;;;;4981690;28;20682;-78
2024/01/16 08:23:34;;;;;;;5.73;5.23;;;-1.20;99.90;;;;;;4978847;28;20481;-77
2024/01/16 08:26:23;;;;;;;10.90;4.87;;;-0.80;99.90;;;;;;4980807;28;20537;-78
2024/01/16 08:29:05;;;;;;;7.67;5.10;;;-0.80;99.90;;;;;;4977449;28;20453;-80
2024/01/16 08:31:45;;;;;;;5.37;4.87;;;-0.70;99.90;;;;;;4977310;28;20452;-78
2024/01/16 08:34:34;;;;;;;5.40;4.90;;;-0.70;99.90;;;;;;4977044;28;20449;-78
2024/01/16 08:37:11;;;;;;;10.77;7.17;;;-0.70;99.90;;;;;;4979377;28;20454;-79
2024/01/16 08:39:54;;;;;;;5.27;4.50;;;-0.60;99.90;;;;;;4981159;28;20994;-80
2024/01/16 08:42:28;;;;;;;5.70;5.20;;;-0.50;99.90;;;;;;4981384;28;20565;-80
2024/01/16 08:45:05;;;;;;;7.00;5.20;;;-0.50;99.90;;;;;;4978625;28;20476;-79
2024/01/16 08:47:40;;;;;;;5.30;4.70;;;-0.50;99.90;;;;;;4979906;28;20449;-79
2024/01/16 08:53:12;;;;;;;5.03;4.53;;;-0.40;99.90;;;;;;4971852;28;20473;-80
2024/01/16 08:55:48;;;;;;;5.70;4.40;;;-0.40;99.90;;;;;;4979481;28;20532;-81
2024/01/16 08:58:22;;;;;;;7.77;5.10;;;-0.40;99.90;;;;;;4980175;28;20965;-80
2024/01/16 09:01:01;;;;;;;5.30;4.87;;;-0.30;99.90;;;;;;4981050;28;20472;-80
2024/01/16 09:06:27;;;;;;;5.03;4.63;;;-0.30;99.90;;;;;;4975304;28;20441;-80
2024/01/16 09:09:09;;;;;;;4.40;4.00;;;-0.20;99.90;;;;;;4978089;28;20453;-78
2024/01/16 09:11:59;;;;;;;6.33;4.57;;;-0.20;99.90;;;;;;4977444;28;20445;-80
2024/01/16 09:14:47;;;;;;;5.83;4.27;;;0.00;99.90;;;;;;4979523;28;20449;-78
2024/01/16 09:17:20;;;;;;;4.87;4.37;;;-0.10;99.90;;;;;;4981987;28;20504;-80
2024/01/16 09:20:09;;;;;;;5.00;4.17;;;0.10;99.90;;;;;;4982268;28;20453;-79
2024/01/16 09:22:49;;;;;;;5.83;4.40;;;0.00;99.90;;;;;;4978952;28;20515;-78
2024/01/16 09:25:31;;;;;;;4.53;4.13;;;-0.10;99.90;;;;;;4977558;28;20531;-78
2024/01/16 09:28:09;;;;;;;4.60;4.20;;;0.00;99.90;;;;;;4979908;28;20445;-79
2024/01/16 09:30:52;;;;;;;4.93;4.40;;;0.00;99.90;;;;;;4982000;28;20460;-80
2024/01/16 09:33:28;;;;;;;4.73;4.10;;;-0.20;99.90;;;;;;4982295;28;20477;-80
2024/01/16 09:35:59;;;;;;;5.77;4.30;;;0.20;99.90;;;;;;4978204;28;20453;-77
2024/01/16 09:38:37;;;;;;;4.63;4.10;;;0.30;99.90;;;;;;4977451;28;20437;-79
2024/01/16 09:41:20;;;;;;;5.20;4.10;;;0.30;99.90;;;;;;4975973;28;20457;-79
2024/01/16 09:43:58;;;;;;;4.40;4.07;;;0.30;99.90;;;;;;4976772;28;20485;-79
2024/01/16 09:46:47;;;;;;;5.30;4.07;;;0.40;99.90;;;;;;4975035;28;20452;-77
2024/01/16 09:49:23;;;;;;;5.37;4.30;;;0.60;99.90;;;;;;4970538;28;20457;-78
2024/01/16 09:51:54;;;;;;;7.07;4.73;;;0.70;99.90;;;;;;4984448;28;20471;-77
2024/01/16 09:54:26;;;;;;;5.83;4.60;;;1.00;99.90;;;;;;4976280;28;20454;-80
2024/01/16 09:57:02;;;;;;;5.80;4.53;;;1.10;99.90;;;;;;4981445;28;20441;-78
2024/01/16 09:59:39;;;;;;;4.80;4.40;;;1.30;99.90;;;;;;4982266;28;20448;-77
2024/01/16 10:02:28;;;;;;;5.57;4.60;;;1.30;99.90;;;;;;4983365;28;20473;-80
2024/01/16 10:05:00;;;;;;;8.10;4.40;;;1.40;99.90;;;;;;4965608;28;20984;-78
2024/01/16 10:07:44;;;;;;;5.33;4.07;;;1.50;99.90;;;;;;4980806;28;20752;-80
2024/01/16 10:10:12;;;;;;;6.27;3.77;;;1.50;99.90;;;;;;4982392;28;20473;-80
2024/01/16 10:12:47;;;;;;;8.37;4.40;;;1.50;99.90;;;;;;4982438;28;20500;-78
2024/01/16 10:15:23;;;;;;;3.93;3.60;;;1.50;99.90;;;;;;4984484;28;20463;-79
2024/01/16 10:17:53;;;;;;;4.33;3.80;;;1.70;99.90;;;;;;4984674;28;20442;-78
2024/01/16 10:20:36;;;;;;;5.87;4.23;;;1.80;99.90;;;;;;4984804;28;20532;-79
2024/01/16 10:23:04;;;;;;;4.43;3.57;;;1.80;99.90;;;;;;4987726;28;20473;-79
2024/01/16 10:25:37;;;;;;;6.53;4.27;;;2.00;99.90;;;;;;4986445;28;20508;-79
2024/01/16 10:28:07;;;;;;;4.67;4.13;;;2.30;99.90;;;;;;4986271;28;20442;-80
2024/01/16 10:30:40;;;;;;;4.50;4.10;;;2.50;99.90;;;;;;4968800;28;20482;-78
2024/01/16 10:33:19;;;;;;;4.80;4.27;;;2.60;99.90;;;;;;4970542;28;20468;-79
2024/01/16 10:35:54;;;;;;;4.00;3.60;;;2.90;99.90;;;;;;4982686;28;20451;-81
2024/01/16 10:38:25;;;;;;;7.43;4.40;;;2.90;99.90;;;;;;4988038;28;20475;-80
2024/01/16 10:41:09;;;;;;;4.43;4.03;;;3.10;99.90;;;;;;4984667;28;20450;-79
2024/01/16 10:43:39;;;;;;;5.80;4.17;;;3.20;99.90;;;;;;4984482;28;20473;-79
2024/01/16 10:46:13;;;;;;;4.53;4.00;;;3.60;99.90;;;;;;4990960;28;20550;-80
2024/01/16 10:49:11;;;;;;;5.87;5.27;;;4.10;99.90;;;;;;4983641;28;20443;-79
2024/01/16 10:54:36;;;;;;;6.10;5.23;;;4.40;99.90;;;;;;4987316;28;20463;-81
2024/01/16 10:57:09;;;;;;;6.83;4.90;;;4.20;99.90;;;;;;4986496;28;20848;-80
2024/01/16 10:59:50;;;;;;;7.83;5.20;;;4.20;99.90;;;;;;4989907;28;20536;-79
2024/01/16 11:02:21;;;;;;;14.90;5.63;;;4.40;99.90;;;;;;4994492;28;20473;-79
2024/01/16 11:04:55;;;;;;;7.17;4.97;;;4.60;99.90;;;;;;4989442;28;20484;-81
2024/01/16 11:07:26;;;;;;;9.30;5.47;;;4.90;99.90;;;;;;4968342;29;20462;-79
2024/01/16 11:10:06;;;;;;;8.07;4.60;;;5.10;99.90;;;;;;4982592;28;20451;-81
2024/01/16 11:12:39;;;;;;;8.87;5.60;;;5.20;99.90;;;;;;4979786;28;20811;-79
2024/01/16 11:15:11;;;;;;;9.93;5.47;;;5.40;99.90;;;;;;4979142;28;20453;-81
2024/01/16 11:17:46;;;;;;;8.83;4.03;;;5.60;99.90;;;;;;4980934;28;20461;-80
2024/01/16 11:20:15;;;;;;;6.63;4.90;;;5.60;99.90;;;;;;4980852;28;20986;-79
2024/01/16 11:22:46;;;;;;;10.10;5.10;;;5.20;99.90;;;;;;4980679;28;20496;-79
2024/01/16 11:25:15;;;;;;;9.70;5.10;;;5.90;99.90;;;;;;4981613;28;20496;-78
2024/01/16 11:27:50;;;;;;;7.13;4.97;;;5.90;99.90;;;;;;4981972;28;20461;-79
2024/01/16 11:30:35;;;;;;;5.40;4.83;;;5.50;99.90;;;;;;4985617;28;20568;-79
2024/01/16 11:44:29;;;;;;;5.53;5.00;;;6.30;99.90;;;;;;5041742;28;20528;-82
2024/01/16 11:51:36;;;;;;;4.73;4.33;;;6.20;99.90;;;;;;5034214;28;20981;-79
2024/01/16 11:58:11;;;;;;;;;;;;;;;;;;;;;
2024/01/16 12:01:13;;;;;;;5.40;4.90;;;6.60;99.90;;;;;;5076086;28;20456;-82
2024/01/16 12:03:51;;;;;;;5.17;4.67;;;6.50;99.90;;;;;;5094460;28;20498;-83
2024/01/16 12:06:45;;;;;;;11.80;4.43;;;6.10;99.90;;;;;;5100145;28;20461;-80
2024/01/16 12:09:30;;;;;;;8.23;4.27;;;6.10;99.90;;;;;;5091772;28;20432;-80
2024/01/16 12:12:30;;;;;;;6.53;4.13;;;5.90;99.90;;;;;;5102625;28;20519;-78
2024/01/16 12:15:46;;;;;;;7.40;4.23;;;5.30;99.90;;;;;;5097942;28;20448;-81
2024/01/16 12:18:40;;;;;;;2.70;2.30;;;5.50;99.90;;;;;;5103303;28;20468;-80
2024/01/16 12:21:41;;;;;;;2.33;2.13;;;5.80;99.90;;;;;;5098867;28;20441;-80
2024/01/16 12:24:24;;;;;;;2.60;2.40;;;5.80;99.90;;;;;;5091873;28;20444;-81
2024/01/16 12:27:02;;;;;;;4.03;2.90;;;5.80;99.90;;;;;;5093694;28;20463;-80
2024/01/16 12:29:45;;;;;;;6.20;3.03;;;5.80;99.90;;;;;;5094447;28;20460;-82
2024/01/16 12:32:27;;;;;;;2.37;1.97;;;5.70;99.90;;;;;;5090960;28;20492;-80
2024/01/16 12:38:09;;;;;;;2.43;2.23;;;6.00;99.90;;;;;;5093892;28;20464;-81
2024/01/16 12:40:51;;;;;;;2.50;2.30;;;5.60;99.90;;;;;;5111255;28;21697;-80
2024/01/16 12:43:26;;;;;;;2.83;2.60;;;5.50;99.90;;;;;;5112582;28;21049;-81
2024/01/16 12:46:11;;;;;;;2.60;2.40;;;5.40;99.90;;;;;;5109198;28;20460;-80
2024/01/16 12:48:50;;;;;;;2.60;2.40;;;5.50;99.90;;;;;;5113814;28;20514;-81
2024/01/16 12:51:34;;;;;;;2.47;2.27;;;5.50;99.90;;;;;;5098336;28;20540;-81
2024/01/16 12:54:56;;;;;;;2.90;2.63;;;5.50;99.90;;;;;;5088995;28;20454;-81
2024/01/16 12:57:44;;;;;;;4.33;2.90;;;4.70;99.90;;;;;;5082614;28;20441;-81
2024/01/16 13:00:35;;;;;;;3.50;3.00;;;4.80;99.90;;;;;;5093925;28;20463;-78
2024/01/16 13:03:26;;;;;;;3.40;3.10;;;4.60;99.90;;;;;;5100505;28;20471;-82
2024/01/16 13:06:40;;;;;;;5.37;2.90;;;4.60;99.90;;;;;;5099299;28;20446;-78
2024/01/16 13:12:44;;;;;;;3.07;2.87;;;4.90;99.90;;;;;;5095901;28;20455;-79
2024/01/16 13:15:31;;;;;;;4.60;3.53;;;4.60;99.90;;;;;;5089684;28;20789;-80
2024/01/16 13:18:39;;;;;;;2.93;2.70;;;5.00;99.90;;;;;;5102861;28;20448;-79
2024/01/16 13:21:22;;;;;;;3.53;2.70;;;5.10;99.90;;;;;;5103999;28;20466;-79
2024/01/16 13:24:02;;;;;;;5.93;2.83;;;5.30;99.90;;;;;;5094976;28;20454;-80
2024/01/16 13:26:48;;;;;;;3.93;2.60;;;5.00;99.90;;;;;;5094750;28;20452;-82
2024/01/16 13:29:37;;;;;;;;;;;;;;;;;;;;;
2024/01/16 13:32:20;;;;;;;5.20;3.50;;;4.80;99.90;;;;;;5101783;28;20460;-79
2024/01/16 13:35:30;;;;;;;4.47;2.93;;;4.70;99.90;;;;;;5094400;28;20491;-80
2024/01/16 13:38:27;;;;;;;4.23;3.00;;;4.70;99.90;;;;;;5099094;28;20443;-79
2024/01/16 13:41:20;;;;;;;4.00;2.87;;;4.90;99.90;;;;;;5092161;28;20421;-80
2024/01/16 13:43:59;;;;;;;5.37;4.90;;;4.90;99.90;;;;;;5092811;28;20450;-79
2024/01/16 13:46:40;;;;;;;3.10;2.90;;;4.90;99.90;;;;;;5096866;28;20513;-79
2024/01/16 13:49:29;;;;;;;2.90;2.70;;;4.80;99.90;;;;;;5091915;28;20440;-78
2024/01/16 13:52:17;;;;;;;6.20;3.00;;;4.80;99.90;;;;;;5094525;28;20515;-80
2024/01/16 13:54:57;;;;;;;3.67;3.33;;;4.80;99.90;;;;;;5093168;28;20451;-78
2024/01/16 14:00:40;;;;;;;2.73;2.53;;;4.70;99.90;;;;;;5093016;28;20509;-79
2024/01/16 14:03:33;;;;;;;5.27;2.70;;;4.70;99.90;;;;;;5098015;28;20488;-80
2024/01/16 14:06:15;;;;;;;4.17;3.57;;;4.80;99.90;;;;;;5093911;28;20838;-77
2024/01/16 14:09:09;;;;;;;3.47;3.13;;;4.50;99.90;;;;;;5084197;28;20471;-79
2024/01/16 14:14:53;;;;;;;4.77;3.40;;;4.00;99.90;;;;;;5084176;28;20454;-80
2024/01/16 14:17:48;;;;;;;3.10;2.87;;;4.10;99.90;;;;;;5081080;28;20441;-81
2024/01/16 14:20:22;;;;;;;6.57;3.57;;;4.10;99.90;;;;;;5079740;28;20504;-77
2024/01/16 14:23:03;;;;;;;3.30;2.97;;;4.10;99.90;;;;;;5079696;28;20499;-79
2024/01/16 14:25:42;;;;;;;3.23;2.93;;;4.10;99.90;;;;;;5078024;28;20448;-80
2024/01/16 14:28:33;;;;;;;3.87;2.97;;;3.90;99.90;;;;;;5077234;28;20448;-78
2024/01/16 14:31:15;;;;;;;3.67;3.30;;;4.20;99.90;;;;;;5061488;28;20459;-80
2024/01/16 14:33:48;;;;;;;7.50;3.20;;;4.20;99.90;;;;;;5080130;28;20819;-79
2024/01/16 14:36:42;;;;;;;4.90;3.27;;;4.20;99.90;;;;;;5080041;28;20459;-80
2024/01/16 14:39:24;;;;;;;2.80;2.60;;;4.20;99.90;;;;;;5078402;28;20545;-80
2024/01/16 14:42:03;;;;;;;2.80;2.60;;;4.00;99.90;;;;;;5079354;28;20468;-81
2024/01/16 14:44:41;;;;;;;3.60;2.63;;;3.90;99.90;;;;;;5078356;28;20529;-80
2024/01/16 14:47:23;;;;;;;2.83;2.60;;;3.70;99.90;;;;;;5077507;28;20472;-82
2024/01/16 14:49:57;;;;;;;5.90;2.93;;;3.60;99.90;;;;;;5077479;28;20449;-79
2024/01/16 14:52:33;;;;;;;6.10;3.17;;;3.80;99.90;;;;;;5077924;28;20476;-77
2024/01/16 14:55:17;;;;;;;5.87;3.30;;;3.90;99.90;;;;;;5077269;28;20441;-81
2024/01/16 14:58:00;;;;;;;3.23;2.93;;;3.50;99.90;;;;;;5085315;28;20443;-80
2024/01/16 15:00:31;;;;;;;3.27;2.97;;;3.40;99.90;;;;;;5099395;28;20474;-80
2024/01/16 15:03:21;;;;;;;3.20;2.90;;;3.40;99.90;;;;;;5100336;28;20523;-81
2024/01/16 15:05:56;;;;;;;3.60;3.23;;;3.30;99.90;;;;;;5088600;28;20456;-80
2024/01/16 15:11:32;;;;;;;2.93;2.67;;;3.40;99.90;;;;;;5076952;28;20844;-80
2024/01/16 15:14:37;;;;;;;2.43;2.30;;;3.20;99.90;;;;;;5076393;28;20472;-78
2024/01/16 15:17:19;;;;;;;3.40;3.10;;;3.20;99.90;;;;;;4995062;28;20460;-84
2024/01/16 15:19:51;;;;;;;3.23;3.03;;;3.10;99.90;;;;;;4995723;28;20487;-81
2024/01/16 15:22:29;;;;;;;3.40;3.00;;;2.70;99.90;;;;;;5066874;28;20492;-81
2024/01/16 15:25:11;;;;;;;7.73;3.83;;;3.00;99.90;;;;;;5077527;28;20440;-80
2024/01/16 15:27:54;;;;;;;3.20;2.90;;;2.90;99.90;;;;;;5077465;28;20452;-81
2024/01/16 15:30:35;;;;;;;3.53;3.23;;;2.90;99.90;;;;;;5078516;28;20452;-81
2024/01/16 15:33:10;;;;;;;3.97;3.03;;;2.90;99.90;;;;;;5077614;28;20610;-78
2024/01/16 15:38:45;;;;;;;9.40;3.63;;;3.00;99.90;;;;;;5069685;28;20449;-78